sensor_id;sensor_type;location;lat;lon;timestamp;pressure;altitude;pressure_sealevel;temperature;humidity
75627;BME280;67372;49.404;11.034;2023-05-10T00:02:20;97422.81;;;15.99;62.82
75627;BME280;67372;49.404;11.034;2023-05-10T00:04:46;97429.78;;;16.00;63.34
75627;BME280;67372;49.404;11.034;2023-05-10T00:07:13;97430.34;;;15.97;64.25
75627;BME280;67372;49.404;11.034;2023-05-10T00:09:39;97420.13;;;15.94;64.21
75627;BME280;67372;49.404;11.034;2023-05-10T00:12:05;97425.50;;;15.94;65.96
75627;BME280;67372;49.404;11.034;2023-05-10T00:14:32;97422.28;;;15.92;64.70
75627;BME280;67372;49.404;11.034;2023-05-10T00:16:58;97425.22;;;15.90;64.65
75627;BME280;67372;49.404;11.034;2023-05-10T00:19:24;97426.31;;;15.89;65.34
75627;BME280;67372;49.404;11.034;2023-05-10T00:21:51;97421.75;;;15.90;64.90
75627;BME280;67372;49.404;11.034;2023-05-10T00:24:17;97423.88;;;15.88;65.63
75627;BME280;67372;49.404;11.034;2023-05-10T00:26:43;97421.47;;;15.86;66.64
75627;BME280;67372;49.404;11.034;2023-05-10T00:29:10;97417.94;;;15.81;66.75
75627;BME280;67372;49.404;11.034;2023-05-10T00:31:36;97410.97;;;15.80;66.28
75627;BME280;67372;49.404;11.034;2023-05-10T00:34:03;97416.34;;;15.80;66.07
75627;BME280;67372;49.404;11.034;2023-05-10T00:36:29;97411.78;;;15.75;67.23
75627;BME280;67372;49.404;11.034;2023-05-10T00:38:55;97406.13;;;15.72;67.44
75627;BME280;67372;49.404;11.034;2023-05-10T00:41:22;97403.97;;;15.69;67.67
75627;BME280;67372;49.404;11.034;2023-05-10T00:43:48;97408.28;;;15.64;68.65
75627;BME280;67372;49.404;11.034;2023-05-10T00:46:15;97409.88;;;15.60;69.29
75627;BME280;67372;49.404;11.034;2023-05-10T00:48:42;97405.53;;;15.54;70.76
75627;BME280;67372;49.404;11.034;2023-05-10T00:51:09;97406.63;;;15.53;68.01
75627;BME280;67372;49.404;11.034;2023-05-10T00:53:36;97402.31;;;15.52;69.05
75627;BME280;67372;49.404;11.034;2023-05-10T00:56:02;97412.28;;;15.52;68.95
75627;BME280;67372;49.404;11.034;2023-05-10T00:58:29;97402.06;;;15.49;68.64
75627;BME280;67372;49.404;11.034;2023-05-10T01:00:55;97410.94;;;15.44;70.26
75627;BME280;67372;49.404;11.034;2023-05-10T01:03:21;97417.38;;;15.38;70.75
75627;BME280;67372;49.404;11.034;2023-05-10T01:05:48;97419.50;;;15.36;70.42
75627;BME280;67372;49.404;11.034;2023-05-10T01:08:14;97424.59;;;15.32;71.20
75627;BME280;67372;49.404;11.034;2023-05-10T01:10:41;97424.06;;;15.30;71.47
75627;BME280;67372;49.404;11.034;2023-05-10T01:13:09;97428.63;;;15.30;71.00
75627;BME280;67372;49.404;11.034;2023-05-10T01:15:36;97421.91;;;15.27;71.22
75627;BME280;67372;49.404;11.034;2023-05-10T01:18:03;97417.59;;;15.26;71.03
75627;BME280;67372;49.404;11.034;2023-05-10T01:20:36;97423.25;;;15.25;71.52
75627;BME280;67372;49.404;11.034;2023-05-10T01:29:13;97417.06;;;15.19;71.70
75627;BME280;67372;49.404;11.034;2023-05-10T01:32:11;97423.78;;;15.22;72.27
75627;BME280;67372;49.404;11.034;2023-05-10T01:37:28;97421.09;;;15.22;72.37
75627;BME280;67372;49.404;11.034;2023-05-10T01:40:17;97418.13;;;15.18;74.22
75627;BME280;67372;49.404;11.034;2023-05-10T01:42:51;97418.09;;;15.13;73.62
75627;BME280;67372;49.404;11.034;2023-05-10T01:45:29;97411.38;;;15.11;72.83
75627;BME280;67372;49.404;11.034;2023-05-10T01:48:06;97415.13;;;15.10;73.55
75627;BME280;67372;49.404;11.034;2023-05-10T01:50:35;97422.66;;;15.08;73.41
75627;BME280;67372;49.404;11.034;2023-05-10T01:53:05;97412.97;;;15.07;73.84
75627;BME280;67372;49.404;11.034;2023-05-10T01:55:36;97418.34;;;15.07;73.65
75627;BME280;67372;49.404;11.034;2023-05-10T01:58:13;97417.56;;;15.06;74.09
75627;BME280;67372;49.404;11.034;2023-05-10T02:00:42;97424.81;;;15.05;74.42
75627;BME280;67372;49.404;11.034;2023-05-10T02:03:10;97426.13;;;15.03;74.96
75627;BME280;67372;49.404;11.034;2023-05-10T02:05:38;97424.50;;;14.97;77.15
75627;BME280;67372;49.404;11.034;2023-05-10T02:08:06;97423.72;;;14.96;76.68
75627;BME280;67372;49.404;11.034;2023-05-10T02:10:34;97419.41;;;14.95;76.18
75627;BME280;67372;49.404;11.034;2023-05-10T02:13:02;97413.78;;;14.97;76.82
75627;BME280;67372;49.404;11.034;2023-05-10T02:15:29;97416.19;;;14.98;76.55
75627;BME280;67372;49.404;11.034;2023-05-10T02:17:58;97421.56;;;14.98;76.97
75627;BME280;67372;49.404;11.034;2023-05-10T02:20:26;97421.31;;;15.00;76.55
75627;BME280;67372;49.404;11.034;2023-05-10T02:22:55;97419.69;;;14.99;76.63
75627;BME280;67372;49.404;11.034;2023-05-10T02:25:23;97419.94;;;14.97;77.24
75627;BME280;67372;49.404;11.034;2023-05-10T02:27:51;97423.19;;;14.99;76.77
75627;BME280;67372;49.404;11.034;2023-05-10T02:30:20;97422.91;;;15.01;76.43
75627;BME280;67372;49.404;11.034;2023-05-10T02:32:48;97420.50;;;15.04;75.83
75627;BME280;67372;49.404;11.034;2023-05-10T02:35:16;97421.84;;;15.07;75.99
75627;BME280;67372;49.404;11.034;2023-05-10T02:37:43;97415.41;;;15.08;76.07
75627;BME280;67372;49.404;11.034;2023-05-10T02:40:12;97427.75;;;15.09;75.56
75627;BME280;67372;49.404;11.034;2023-05-10T02:42:41;97414.84;;;15.06;79.24
75627;BME280;67372;49.404;11.034;2023-05-10T02:45:21;97425.59;;;15.06;77.14
75627;BME280;67372;49.404;11.034;2023-05-10T02:47:49;97420.78;;;15.08;76.87
75627;BME280;67372;49.404;11.034;2023-05-10T02:50:16;97421.56;;;15.03;77.56
75627;BME280;67372;49.404;11.034;2023-05-10T02:52:47;97418.59;;;15.00;78.88
75627;BME280;67372;49.404;11.034;2023-05-10T02:55:15;97426.13;;;15.03;78.13
75627;BME280;67372;49.404;11.034;2023-05-10T02:57:48;97425.31;;;14.92;77.78
75627;BME280;67372;49.404;11.034;2023-05-10T03:00:17;97425.53;;;14.86;79.45
75627;BME280;67372;49.404;11.034;2023-05-10T03:02:43;97425.25;;;14.82;78.45
75627;BME280;67372;49.404;11.034;2023-05-10T03:05:10;97430.06;;;14.80;78.66
75627;BME280;67372;49.404;11.034;2023-05-10T03:07:36;97423.09;;;14.74;78.73
75627;BME280;67372;49.404;11.034;2023-05-10T03:10:03;97426.56;;;14.74;78.06
75627;BME280;67372;49.404;11.034;2023-05-10T03:12:47;97432.41;;;14.66;79.09
75627;BME280;67372;49.404;11.034;2023-05-10T03:15:44;97426.22;;;14.61;79.18
75627;BME280;67372;49.404;11.034;2023-05-10T03:18:15;97430.22;;;14.53;80.45
75627;BME280;67372;49.404;11.034;2023-05-10T03:20:51;97432.09;;;14.48;78.66
75627;BME280;67372;49.404;11.034;2023-05-10T03:23:30;97438.78;;;14.45;78.80
75627;BME280;67372;49.404;11.034;2023-05-10T03:26:00;97429.84;;;14.39;79.09
75627;BME280;67372;49.404;11.034;2023-05-10T03:28:28;97438.13;;;14.33;79.52
75627;BME280;67372;49.404;11.034;2023-05-10T03:30:54;97435.97;;;14.30;79.30
75627;BME280;67372;49.404;11.034;2023-05-10T03:33:22;97453.13;;;14.29;78.70
75627;BME280;67372;49.404;11.034;2023-05-10T03:35:48;97446.66;;;14.25;78.48
75627;BME280;67372;49.404;11.034;2023-05-10T03:38:14;97441.28;;;14.20;78.89
75627;BME280;67372;49.404;11.034;2023-05-10T03:40:41;97449.56;;;14.18;79.55
75627;BME280;67372;49.404;11.034;2023-05-10T03:43:07;97454.38;;;14.16;78.87
75627;BME280;67372;49.404;11.034;2023-05-10T03:45:34;97457.56;;;14.13;78.65
75627;BME280;67372;49.404;11.034;2023-05-10T03:48:00;97462.38;;;14.11;79.08
75627;BME280;67372;49.404;11.034;2023-05-10T03:50:27;97470.19;;;14.12;79.36
75627;BME280;67372;49.404;11.034;2023-05-10T03:52:53;97464.56;;;14.14;78.71
75627;BME280;67372;49.404;11.034;2023-05-10T03:55:20;97468.09;;;14.20;78.72
75627;BME280;67372;49.404;11.034;2023-05-10T03:57:46;97470.78;;;14.20;78.44
75627;BME280;67372;49.404;11.034;2023-05-10T04:00:13;97473.75;;;14.23;78.17
75627;BME280;67372;49.404;11.034;2023-05-10T04:02:40;97480.44;;;14.21;80.57
75627;BME280;67372;49.404;11.034;2023-05-10T04:05:07;97479.88;;;14.19;79.20
75627;BME280;67372;49.404;11.034;2023-05-10T04:07:33;97479.31;;;14.17;81.41
75627;BME280;67372;49.404;11.034;2023-05-10T04:09:59;97478.22;;;14.12;81.54
75627;BME280;67372;49.404;11.034;2023-05-10T04:12:26;97479.28;;;14.11;79.66
75627;BME280;67372;49.404;11.034;2023-05-10T04:14:52;97477.41;;;14.12;79.87
75627;BME280;67372;49.404;11.034;2023-05-10T04:17:19;97480.63;;;14.09;79.77
75627;BME280;67372;49.404;11.034;2023-05-10T04:19:45;97488.66;;;14.09;79.46
75627;BME280;67372;49.404;11.034;2023-05-10T04:22:11;97494.28;;;14.07;80.26
75627;BME280;67372;49.404;11.034;2023-05-10T04:24:38;97495.59;;;14.05;79.90
75627;BME280;67372;49.404;11.034;2023-05-10T04:27:04;97496.66;;;14.04;79.85
75627;BME280;67372;49.404;11.034;2023-05-10T04:29:30;97495.81;;;13.98;79.73
75627;BME280;67372;49.404;11.034;2023-05-10T04:31:57;97496.09;;;13.97;80.01
75627;BME280;67372;49.404;11.034;2023-05-10T04:34:23;97502.00;;;13.99;80.21
75627;BME280;67372;49.404;11.034;2023-05-10T04:36:49;97498.75;;;13.97;79.76
75627;BME280;67372;49.404;11.034;2023-05-10T04:39:16;97508.16;;;13.99;79.65
75627;BME280;67372;49.404;11.034;2023-05-10T04:41:42;97508.16;;;13.99;80.50
75627;BME280;67372;49.404;11.034;2023-05-10T04:44:08;97509.53;;;14.02;80.25
75627;BME280;67372;49.404;11.034;2023-05-10T04:46:35;97517.59;;;14.07;79.50
75627;BME280;67372;49.404;11.034;2023-05-10T04:49:01;97516.53;;;14.08;80.22
75627;BME280;67372;49.404;11.034;2023-05-10T04:51:28;97525.91;;;14.05;79.59
75627;BME280;67372;49.404;11.034;2023-05-10T04:53:54;97522.97;;;14.07;79.63
75627;BME280;67372;49.404;11.034;2023-05-10T04:56:31;97533.69;;;14.07;78.79
75627;BME280;67372;49.404;11.034;2023-05-10T04:58:57;97541.22;;;14.10;79.13
75627;BME280;67372;49.404;11.034;2023-05-10T05:01:24;97536.38;;;14.07;78.70
75627;BME280;67372;49.404;11.034;2023-05-10T05:03:50;97546.84;;;14.08;78.85
75627;BME280;67372;49.404;11.034;2023-05-10T05:06:17;97548.00;;;14.18;78.29
75627;BME280;67372;49.404;11.034;2023-05-10T05:08:43;97558.25;;;14.21;78.48
75627;BME280;67372;49.404;11.034;2023-05-10T05:11:09;97552.63;;;14.22;77.92
75627;BME280;67372;49.404;11.034;2023-05-10T05:13:36;97553.94;;;14.20;77.52
75627;BME280;67372;49.404;11.034;2023-05-10T05:16:02;97546.94;;;14.19;77.42
75627;BME280;67372;49.404;11.034;2023-05-10T05:18:29;97546.13;;;14.18;77.64
75627;BME280;67372;49.404;11.034;2023-05-10T05:20:55;97550.38;;;14.14;77.42
75627;BME280;67372;49.404;11.034;2023-05-10T05:23:22;97549.16;;;14.27;76.75
75627;BME280;67372;49.404;11.034;2023-05-10T05:25:48;97561.25;;;14.29;76.88
75627;BME280;67372;49.404;11.034;2023-05-10T05:28:14;97559.94;;;14.32;76.25
75627;BME280;67372;49.404;11.034;2023-05-10T05:30:41;97569.59;;;14.33;75.84
75627;BME280;67372;49.404;11.034;2023-05-10T05:33:07;97562.34;;;14.33;76.36
75627;BME280;67372;49.404;11.034;2023-05-10T05:35:33;97559.34;;;14.25;75.75
75627;BME280;67372;49.404;11.034;2023-05-10T05:38:00;97567.44;;;14.30;75.98
75627;BME280;67372;49.404;11.034;2023-05-10T05:40:26;97557.75;;;14.29;76.33
75627;BME280;67372;49.404;11.034;2023-05-10T05:42:52;97557.84;;;14.39;75.13
75627;BME280;67372;49.404;11.034;2023-05-10T05:45:18;97568.06;;;14.42;74.65
75627;BME280;67372;49.404;11.034;2023-05-10T05:47:45;97569.13;;;14.41;75.26
75627;BME280;67372;49.404;11.034;2023-05-10T05:50:12;97568.66;;;14.44;75.10
75627;BME280;67372;49.404;11.034;2023-05-10T05:52:38;97570.56;;;14.49;74.90
75627;BME280;67372;49.404;11.034;2023-05-10T05:55:05;97573.28;;;14.54;75.18
75627;BME280;67372;49.404;11.034;2023-05-10T05:57:31;97573.56;;;14.52;74.41
75627;BME280;67372;49.404;11.034;2023-05-10T05:59:57;97579.19;;;14.51;75.08
75627;BME280;67372;49.404;11.034;2023-05-10T06:02:24;97573.28;;;14.54;74.85
75627;BME280;67372;49.404;11.034;2023-05-10T06:04:50;97579.25;;;14.61;74.89
75627;BME280;67372;49.404;11.034;2023-05-10T06:07:16;97588.22;;;14.77;74.30
75627;BME280;67372;49.404;11.034;2023-05-10T06:09:43;97590.41;;;14.85;73.59
75627;BME280;67372;49.404;11.034;2023-05-10T06:12:09;97596.59;;;14.85;73.54
75627;BME280;67372;49.404;11.034;2023-05-10T06:14:35;97599.56;;;14.89;73.58
75627;BME280;67372;49.404;11.034;2023-05-10T06:17:02;97585.56;;;14.82;73.84
75627;BME280;67372;49.404;11.034;2023-05-10T06:19:28;97600.44;;;14.94;73.58
75627;BME280;67372;49.404;11.034;2023-05-10T06:21:55;97601.25;;;15.00;73.64
75627;BME280;67372;49.404;11.034;2023-05-10T06:24:21;97601.84;;;15.07;73.42
75627;BME280;67372;49.404;11.034;2023-05-10T06:26:47;97610.44;;;15.09;73.13
75627;BME280;67372;49.404;11.034;2023-05-10T06:29:14;97615.91;;;15.19;73.11
75627;BME280;67372;49.404;11.034;2023-05-10T06:31:40;97611.63;;;15.28;72.31
75627;BME280;67372;49.404;11.034;2023-05-10T06:34:06;97616.00;;;15.40;71.71
75627;BME280;67372;49.404;11.034;2023-05-10T06:36:33;97608.75;;;15.45;72.16
75627;BME280;67372;49.404;11.034;2023-05-10T06:39:00;97616.88;;;15.55;71.99
75627;BME280;67372;49.404;11.034;2023-05-10T06:41:26;97613.47;;;15.70;71.02
75627;BME280;67372;49.404;11.034;2023-05-10T06:43:52;97619.13;;;15.79;70.43
75627;BME280;67372;49.404;11.034;2023-05-10T06:46:19;97618.91;;;15.85;70.03
75627;BME280;67372;49.404;11.034;2023-05-10T06:48:45;97621.31;;;15.87;69.87
75627;BME280;67372;49.404;11.034;2023-05-10T06:51:11;97619.19;;;15.94;69.78
75627;BME280;67372;49.404;11.034;2023-05-10T06:53:38;97615.16;;;16.02;68.89
75627;BME280;67372;49.404;11.034;2023-05-10T06:56:04;97618.66;;;16.07;68.66
75627;BME280;67372;49.404;11.034;2023-05-10T06:58:30;97621.94;;;16.19;69.21
75627;BME280;67372;49.404;11.034;2023-05-10T07:01:02;97620.09;;;16.35;68.79
75627;BME280;67372;49.404;11.034;2023-05-10T07:03:28;97620.88;;;16.46;67.54
75627;BME280;67372;49.404;11.034;2023-05-10T07:06:00;97628.16;;;16.50;66.63
75627;BME280;67372;49.404;11.034;2023-05-10T07:08:27;97633.28;;;16.42;67.44
75627;BME280;67372;49.404;11.034;2023-05-10T07:13:27;97634.00;;;16.07;67.10
75627;BME280;67372;49.404;11.034;2023-05-10T07:15:54;97632.91;;;15.92;68.57
75627;BME280;67372;49.404;11.034;2023-05-10T07:18:20;97632.63;;;15.94;68.30
75627;BME280;67372;49.404;11.034;2023-05-10T07:20:47;97631.28;;;15.96;67.37
75627;BME280;67372;49.404;11.034;2023-05-10T07:23:13;97639.38;;;16.07;66.77
75627;BME280;67372;49.404;11.034;2023-05-10T07:25:40;97648.50;;;15.95;67.68
75627;BME280;67372;49.404;11.034;2023-05-10T07:28:06;97653.34;;;15.88;68.50
75627;BME280;67372;49.404;11.034;2023-05-10T07:30:32;97648.44;;;15.80;67.56
75627;BME280;67372;49.404;11.034;2023-05-10T07:32:59;97651.38;;;15.74;68.04
75627;BME280;67372;49.404;11.034;2023-05-10T07:35:25;97653.31;;;15.83;68.17
75627;BME280;67372;49.404;11.034;2023-05-10T07:37:52;97647.19;;;15.98;68.21
75627;BME280;67372;49.404;11.034;2023-05-10T07:40:18;97650.16;;;16.07;67.63
75627;BME280;67372;49.404;11.034;2023-05-10T07:42:45;97648.84;;;16.14;66.70
75627;BME280;67372;49.404;11.034;2023-05-10T07:45:11;97650.47;;;16.25;66.39
75627;BME280;67372;49.404;11.034;2023-05-10T07:47:37;97653.16;;;16.20;66.36
75627;BME280;67372;49.404;11.034;2023-05-10T07:50:04;97656.66;;;16.16;67.52
75627;BME280;67372;49.404;11.034;2023-05-10T07:52:31;97660.94;;;16.12;66.57
75627;BME280;67372;49.404;11.034;2023-05-10T07:54:57;97659.28;;;16.01;66.81
75627;BME280;67372;49.404;11.034;2023-05-10T07:57:23;97664.94;;;15.99;66.99
75627;BME280;67372;49.404;11.034;2023-05-10T07:59:50;97664.94;;;16.04;67.38
75627;BME280;67372;49.404;11.034;2023-05-10T08:02:16;97667.13;;;16.12;65.85
75627;BME280;67372;49.404;11.034;2023-05-10T08:04:42;97674.69;;;16.15;66.42
75627;BME280;67372;49.404;11.034;2023-05-10T08:07:09;97672.28;;;16.29;67.14
75627;BME280;67372;49.404;11.034;2023-05-10T08:09:35;97666.38;;;16.52;65.82
75627;BME280;67372;49.404;11.034;2023-05-10T08:12:02;97671.00;;;16.62;65.04
75627;BME280;67372;49.404;11.034;2023-05-10T08:14:29;97669.66;;;16.75;65.06
75627;BME280;67372;49.404;11.034;2023-05-10T08:16:55;97680.19;;;16.92;64.31
75627;BME280;67372;49.404;11.034;2023-05-10T08:19:22;97676.97;;;17.05;64.56
75627;BME280;67372;49.404;11.034;2023-05-10T08:21:48;97667.78;;;17.11;63.29
75627;BME280;67372;49.404;11.034;2023-05-10T08:24:15;97667.75;;;17.21;62.81
75627;BME280;67372;49.404;11.034;2023-05-10T08:26:41;97668.81;;;17.35;63.33
75627;BME280;67372;49.404;11.034;2023-05-10T08:29:07;97670.13;;;17.53;62.76
75627;BME280;67372;49.404;11.034;2023-05-10T08:31:34;97679.53;;;17.71;60.58
75627;BME280;67372;49.404;11.034;2023-05-10T08:34:00;97676.84;;;17.71;60.59
75627;BME280;67372;49.404;11.034;2023-05-10T08:36:26;97682.75;;;17.83;60.91
75627;BME280;67372;49.404;11.034;2023-05-10T08:38:53;97672.25;;;17.71;60.55
75627;BME280;67372;49.404;11.034;2023-05-10T08:41:21;97671.63;;;18.00;61.02
75627;BME280;67372;49.404;11.034;2023-05-10T08:43:47;97682.28;;;18.20;60.85
75627;BME280;67372;49.404;11.034;2023-05-10T08:46:16;97681.13;;;18.36;59.33
75627;BME280;67372;49.404;11.034;2023-05-10T08:48:47;97674.31;;;18.44;58.34
75627;BME280;67372;49.404;11.034;2023-05-10T08:51:18;97687.66;;;18.30;58.12
75627;BME280;67372;49.404;11.034;2023-05-10T08:53:45;97673.50;;;17.99;59.49
75627;BME280;67372;49.404;11.034;2023-05-10T08:56:12;97683.03;;;17.82;59.83
75627;BME280;67372;49.404;11.034;2023-05-10T08:58:39;97685.50;;;17.58;60.43
75627;BME280;67372;49.404;11.034;2023-05-10T09:01:05;97687.72;;;17.30;62.12
75627;BME280;67372;49.404;11.034;2023-05-10T09:03:31;97699.84;;;17.02;63.98
75627;BME280;67372;49.404;11.034;2023-05-10T09:05:58;97699.84;;;16.77;65.37
75627;BME280;67372;49.404;11.034;2023-05-10T09:08:25;97703.84;;;16.59;65.57
75627;BME280;67372;49.404;11.034;2023-05-10T09:10:53;97696.00;;;16.47;66.03
75627;BME280;67372;49.404;11.034;2023-05-10T09:13:22;97700.53;;;16.32;68.04
75627;BME280;67372;49.404;11.034;2023-05-10T09:15:48;97703.28;;;16.37;67.11
75627;BME280;67372;49.404;11.034;2023-05-10T09:18:15;97703.75;;;16.28;68.19
75627;BME280;67372;49.404;11.034;2023-05-10T09:20:41;97697.34;;;16.35;69.60
75627;BME280;67372;49.404;11.034;2023-05-10T09:23:08;97701.94;;;16.44;68.74
75627;BME280;67372;49.404;11.034;2023-05-10T09:25:34;97703.34;;;16.67;67.10
75627;BME280;67372;49.404;11.034;2023-05-10T09:28:01;97700.66;;;17.03;65.88
75627;BME280;67372;49.404;11.034;2023-05-10T09:30:29;97698.22;;;17.37;65.14
75627;BME280;67372;49.404;11.034;2023-05-10T09:32:58;97692.25;;;17.45;65.14
75627;BME280;67372;49.404;11.034;2023-05-10T09:35:27;97697.59;;;17.65;64.50
75627;BME280;67372;49.404;11.034;2023-05-10T09:37:57;97692.97;;;17.86;62.86
75627;BME280;67372;49.404;11.034;2023-05-10T09:40:25;97699.00;;;18.27;62.22
75627;BME280;67372;49.404;11.034;2023-05-10T09:42:56;97694.63;;;18.36;60.64
75627;BME280;67372;49.404;11.034;2023-05-10T09:45:25;97703.50;;;18.47;59.38
75627;BME280;67372;49.404;11.034;2023-05-10T09:47:52;97696.78;;;18.39;60.15
75627;BME280;67372;49.404;11.034;2023-05-10T09:50:19;97694.97;;;18.25;58.78
75627;BME280;67372;49.404;11.034;2023-05-10T09:53:00;97690.81;;;17.88;60.25
75627;BME280;67372;49.404;11.034;2023-05-10T09:55:39;97692.13;;;17.96;60.30
75627;BME280;67372;49.404;11.034;2023-05-10T09:58:07;97682.94;;;18.02;59.18
75627;BME280;67372;49.404;11.034;2023-05-10T10:00:38;97693.69;;;18.12;59.02
75627;BME280;67372;49.404;11.034;2023-05-10T10:03:05;97693.13;;;18.15;57.88
75627;BME280;67372;49.404;11.034;2023-05-10T10:05:33;97695.03;;;18.09;57.28
75627;BME280;67372;49.404;11.034;2023-05-10T10:08:03;97689.97;;;17.93;58.29
75627;BME280;67372;49.404;11.034;2023-05-10T10:10:30;97693.22;;;17.90;57.76
75627;BME280;67372;49.404;11.034;2023-05-10T10:12:57;97681.63;;;17.89;57.84
75627;BME280;67372;49.404;11.034;2023-05-10T10:15:24;97689.97;;;17.93;57.33
75627;BME280;67372;49.404;11.034;2023-05-10T10:17:51;97683.47;;;18.04;56.74
75627;BME280;67372;49.404;11.034;2023-05-10T10:20:19;97691.97;;;18.31;56.65
75627;BME280;67372;49.404;11.034;2023-05-10T10:22:47;97688.34;;;18.51;54.79
75627;BME280;67372;49.404;11.034;2023-05-10T10:25:15;97683.94;;;18.65;54.30
75627;BME280;67372;49.404;11.034;2023-05-10T10:27:54;97685.50;;;18.77;53.87
75627;BME280;67372;49.404;11.034;2023-05-10T10:35:55;97689.50;;;19.13;52.33
75627;BME280;67372;49.404;11.034;2023-05-10T10:38:24;97682.25;;;19.09;53.33
75627;BME280;67372;49.404;11.034;2023-05-10T10:41:09;97674.41;;;19.07;54.14
75627;BME280;67372;49.404;11.034;2023-05-10T10:43:35;97687.38;;;19.10;53.46
75627;BME280;67372;49.404;11.034;2023-05-10T10:48:39;97686.63;;;18.70;52.89
75627;BME280;67372;49.404;11.034;2023-05-10T10:51:05;97702.69;;;18.47;52.32
75627;BME280;67372;49.404;11.034;2023-05-10T10:53:32;97695.72;;;18.35;52.57
75627;BME280;67372;49.404;11.034;2023-05-10T10:56:09;97701.16;;;18.30;53.11
75627;BME280;67372;49.404;11.034;2023-05-10T10:58:37;97692.00;;;18.26;53.93
75627;BME280;67372;49.404;11.034;2023-05-10T11:01:18;97695.72;;;18.35;54.08
75627;BME280;67372;49.404;11.034;2023-05-10T11:08:56;97687.81;;;18.49;53.39
75627;BME280;67372;49.404;11.034;2023-05-10T11:11:22;97691.78;;;18.62;53.38
75627;BME280;67372;49.404;11.034;2023-05-10T11:13:49;97681.97;;;18.76;54.00
75627;BME280;67372;49.404;11.034;2023-05-10T11:16:23;97683.66;;;19.01;52.41
75627;BME280;67372;49.404;11.034;2023-05-10T11:21:20;97689.03;;;19.35;51.04
75627;BME280;67372;49.404;11.034;2023-05-10T11:26:13;97688.78;;;19.31;52.33
75627;BME280;67372;49.404;11.034;2023-05-10T11:28:47;97691.09;;;19.19;52.64
75627;BME280;67372;49.404;11.034;2023-05-10T11:31:15;97692.94;;;19.24;52.27
75627;BME280;67372;49.404;11.034;2023-05-10T11:33:46;97688.41;;;19.14;52.49
75627;BME280;67372;49.404;11.034;2023-05-10T11:36:17;97694.69;;;19.10;53.98
75627;BME280;67372;49.404;11.034;2023-05-10T11:38:44;97683.44;;;18.97;54.62
75627;BME280;67372;49.404;11.034;2023-05-10T11:41:11;97691.25;;;18.99;55.10
75627;BME280;67372;49.404;11.034;2023-05-10T11:43:38;97700.25;;;18.89;56.19
75627;BME280;67372;49.404;11.034;2023-05-10T11:46:10;97701.63;;;18.87;55.49
75627;BME280;67372;49.404;11.034;2023-05-10T11:48:41;97708.34;;;18.89;54.54
75627;BME280;67372;49.404;11.034;2023-05-10T11:51:08;97699.75;;;18.82;55.03
75627;BME280;67372;49.404;11.034;2023-05-10T11:53:35;97703.59;;;18.76;54.14
75627;BME280;67372;49.404;11.034;2023-05-10T11:56:06;97709.63;;;18.63;54.72
75627;BME280;67372;49.404;11.034;2023-05-10T11:58:33;97702.91;;;18.55;55.08
75627;BME280;67372;49.404;11.034;2023-05-10T12:01:01;97713.97;;;18.54;55.07
75627;BME280;67372;49.404;11.034;2023-05-10T12:03:28;97716.19;;;18.47;55.04
75627;BME280;67372;49.404;11.034;2023-05-10T12:05:56;97706.84;;;18.29;55.88
75627;BME280;67372;49.404;11.034;2023-05-10T12:08:25;97704.97;;;18.19;55.58
75627;BME280;67372;49.404;11.034;2023-05-10T12:10:53;97705.00;;;18.14;55.13
75627;BME280;67372;49.404;11.034;2023-05-10T12:13:20;97712.03;;;18.10;55.36
75627;BME280;67372;49.404;11.034;2023-05-10T12:15:47;97709.31;;;18.15;55.02
75627;BME280;67372;49.404;11.034;2023-05-10T12:18:14;97715.50;;;18.21;53.85
75627;BME280;67372;49.404;11.034;2023-05-10T12:20:40;97701.97;;;18.31;52.58
75627;BME280;67372;49.404;11.034;2023-05-10T12:23:12;97710.28;;;18.39;52.50
75627;BME280;67372;49.404;11.034;2023-05-10T12:25:39;97702.09;;;18.55;52.49
75627;BME280;67372;49.404;11.034;2023-05-10T12:28:07;97705.28;;;18.62;52.02
75627;BME280;67372;49.404;11.034;2023-05-10T12:30:35;97708.50;;;18.69;52.96
75627;BME280;67372;49.404;11.034;2023-05-10T12:33:07;97707.88;;;18.82;52.49
75627;BME280;67372;49.404;11.034;2023-05-10T12:35:43;97707.19;;;19.00;50.21
75627;BME280;67372;49.404;11.034;2023-05-10T12:38:36;97712.47;;;19.16;51.11
75627;BME280;67372;49.404;11.034;2023-05-10T12:41:04;97718.66;;;19.21;51.35
75627;BME280;67372;49.404;11.034;2023-05-10T12:43:31;97712.09;;;19.27;51.48
75627;BME280;67372;49.404;11.034;2023-05-10T12:45:58;97712.34;;;19.31;52.09
75627;BME280;67372;49.404;11.034;2023-05-10T12:48:25;97709.81;;;19.40;51.83
75627;BME280;67372;49.404;11.034;2023-05-10T12:50:51;97710.88;;;19.44;51.93
75627;BME280;67372;49.404;11.034;2023-05-10T12:53:17;97694.66;;;19.44;52.03
75627;BME280;67372;49.404;11.034;2023-05-10T12:55:44;97700.72;;;19.59;51.44
75627;BME280;67372;49.404;11.034;2023-05-10T12:58:10;97696.59;;;19.67;51.57
75627;BME280;67372;49.404;11.034;2023-05-10T13:00:46;97702.94;;;19.52;50.66
75627;BME280;67372;49.404;11.034;2023-05-10T13:03:12;97695.75;;;19.43;51.54
75627;BME280;67372;49.404;11.034;2023-05-10T13:05:39;97708.19;;;19.39;52.00
75627;BME280;67372;49.404;11.034;2023-05-10T13:08:05;97714.19;;;19.36;52.16
75627;BME280;67372;49.404;11.034;2023-05-10T13:10:32;97702.69;;;19.54;52.13
75627;BME280;67372;49.404;11.034;2023-05-10T13:12:58;97709.31;;;19.67;51.85
75627;BME280;67372;49.404;11.034;2023-05-10T13:15:25;97704.06;;;19.75;51.33
75627;BME280;67372;49.404;11.034;2023-05-10T13:17:52;97697.28;;;19.78;51.13
75627;BME280;67372;49.404;11.034;2023-05-10T13:20:19;97698.78;;;19.89;51.22
75627;BME280;67372;49.404;11.034;2023-05-10T13:22:46;97702.84;;;20.10;49.91
75627;BME280;67372;49.404;11.034;2023-05-10T13:25:12;97703.88;;;20.14;50.38